Time;durP1;ratioP1;P1;durP2;ratioP2;P2;SDS_P1;SDS_P2;PMS_P1;PMS_P2;Temp;Humidity;BMP_temperature;BMP_pressure;BME280_temperature;BME280_humidity;BME280_pressure;Samples;Min_cycle;Max_cycle;Signal;HPM_P1;HPM_P2
2022/06/04 21:40:02;;;;;;;;;;;22.20;80.40;;;;;;4917644;29;19931;-82
2022/06/04 21:42:34;;;;;;;;;;;22.20;80.70;;;;;;4933409;29;19934;-80
2022/06/04 21:45:03;;;;;;;;;;;22.10;80.90;;;;;;4922923;29;20373;-80
2022/06/04 21:47:29;;;;;;;;;;;22.10;81.00;;;;;;4933733;29;19982;-85
2022/06/04 21:50:05;;;;;;;;;;;22.10;81.00;;;;;;4936013;29;19926;-86
2022/06/04 21:52:32;;;;;;;;;;;22.00;81.20;;;;;;4932225;29;19927;-85
2022/06/04 21:54:59;;;;;;;;;;;22.00;81.30;;;;;;4933757;29;19927;-86
2022/06/04 21:57:26;;;;;;;;;;;22.00;81.30;;;;;;4934320;29;19978;-85
2022/06/04 21:59:52;;;;;;;;;;;21.90;81.20;;;;;;4914823;29;20315;-82
2022/06/04 22:02:19;;;;;;;;;;;21.90;81.20;;;;;;4920319;29;19927;-80
2022/06/04 22:04:47;;;;;;;;;;;21.90;80.90;;;;;;4919031;29;19935;-82
2022/06/04 22:07:14;;;;;;;;;;;21.90;80.90;;;;;;4917990;29;19952;-84
2022/06/04 22:09:41;;;;;;;;;;;21.80;81.10;;;;;;4913672;29;20291;-80
2022/06/04 22:12:08;;;;;;;;;;;21.80;81.00;;;;;;4917870;29;19977;-86
2022/06/04 22:14:37;;;;;;;;;;;21.70;81.00;;;;;;4922074;29;20005;-79
2022/06/04 22:17:04;;;;;;;;;;;21.70;81.10;;;;;;4920905;29;19963;-79
2022/06/04 22:19:35;;;;;;;;;;;21.60;81.10;;;;;;4918572;29;20001;-81
2022/06/04 22:22:02;;;;;;;;;;;21.60;81.20;;;;;;4917932;29;19983;-84
2022/06/04 22:24:29;;;;;;;;;;;21.60;81.30;;;;;;4932899;29;19931;-80
2022/06/04 22:26:56;;;;;;;;;;;21.60;81.10;;;;;;4918366;29;19931;-79
2022/06/04 22:29:29;;;;;;;;;;;21.70;80.80;;;;;;4917570;29;19933;-82
2022/06/04 22:31:56;;;;;;;;;;;21.60;80.60;;;;;;4933225;29;19927;-79
2022/06/04 22:34:23;;;;;;;;;;;21.70;80.30;;;;;;4917303;29;19979;-78
2022/06/04 22:36:50;;;;;;;;;;;21.70;80.20;;;;;;4924864;29;19930;-82
2022/06/04 22:39:16;;;;;;;;;;;21.70;80.10;;;;;;4913261;29;20384;-79
2022/06/04 22:41:43;;;;;;;;;;;21.70;80.10;;;;;;4917574;29;19927;-82
2022/06/04 22:44:10;;;;;;;;;;;21.70;79.80;;;;;;4916618;29;19927;-79
2022/06/04 22:46:37;;;;;;;;;;;21.70;79.90;;;;;;4916248;29;19927;-85
2022/06/04 22:49:04;;;;;;;;;;;21.70;80.00;;;;;;4917294;29;19949;-79
2022/06/04 22:51:52;;;;;;;;;;;21.70;79.80;;;;;;4917976;29;20033;-82
2022/06/04 22:54:20;;;;;;;;;;;21.70;79.60;;;;;;4929332;29;19935;-83
2022/06/04 22:56:47;;;;;;;;;;;21.80;79.50;;;;;;4917479;29;20304;-79
2022/06/04 22:59:13;;;;;;;;;;;21.80;79.20;;;;;;4914114;29;19979;-79
2022/06/04 23:01:41;;;;;;;;;;;21.80;78.90;;;;;;4931395;29;19931;-85
2022/06/04 23:04:08;;;;;;;;;;;21.90;78.60;;;;;;4914480;29;19931;-79
2022/06/04 23:06:36;;;;;;;;;;;22.00;78.10;;;;;;4914194;29;19935;-79
2022/06/04 23:09:03;;;;;;;;;;;22.00;78.00;;;;;;4913055;29;20391;-80
2022/06/04 23:25:25;;;;;;;;;;;22.20;76.30;;;;;;4917225;29;19931;-86
2022/06/04 23:27:52;;;;;;;;;;;22.30;76.20;;;;;;4918552;29;19927;-83
2022/06/04 23:30:19;;;;;;;;;;;22.30;75.90;;;;;;4928532;29;19951;-79
2022/06/04 23:32:45;;;;;;;;;;;22.30;75.80;;;;;;4916874;29;19931;-79
2022/06/04 23:35:12;;;;;;;;;;;22.30;75.60;;;;;;4916697;29;19928;-84
2022/06/04 23:37:39;;;;;;;;;;;22.40;75.60;;;;;;4917202;29;19966;-79
2022/06/04 23:40:07;;;;;;;;;;;22.40;75.60;;;;;;4917139;29;19927;-83
2022/06/04 23:42:34;;;;;;;;;;;22.30;75.60;;;;;;4917660;29;19927;-82
2022/06/04 23:45:00;;;;;;;;;;;22.30;75.60;;;;;;4914569;29;20434;-83
2022/06/04 23:47:27;;;;;;;;;;;22.30;76.20;;;;;;4915215;29;20675;-80
2022/06/04 23:49:54;;;;;;;;;;;22.30;76.50;;;;;;4914691;29;19979;-83
2022/06/04 23:52:22;;;;;;;;;;;22.30;76.40;;;;;;4914124;29;19934;-81
2022/06/04 23:54:49;;;;;;;;;;;22.20;76.30;;;;;;4915555;29;19927;-87
2022/06/04 23:57:16;;;;;;;;;;;22.20;76.40;;;;;;4914912;29;19935;-87
2022/06/04 23:59:42;;;;;;;;;;;22.30;76.70;;;;;;4918438;29;19973;-85
